Time;durP1;ratioP1;P1;durP2;ratioP2;P2;SDS_P1;SDS_P2;PMS_P1;PMS_P2;Temp;Humidity;BMP_temperature;BMP_pressure;BME280_temperature;BME280_humidity;BME280_pressure;Samples;Min_cycle;Max_cycle;Signal;HPM_P1;HPM_P2
2022/07/08 00:01:41;;;;;;;35.50;33.80;;;;;;;21.73;39.74;102939.69;4954232;29;20476;-85
2022/07/08 00:04:07;;;;;;;36.58;34.30;;;;;;;21.72;39.22;102938.03;4938133;29;20073;-85
2022/07/08 00:06:32;;;;;;;35.80;34.00;;;;;;;21.70;40.14;102931.97;4954409;29;20066;-82
2022/07/08 00:08:57;;;;;;;38.22;36.00;;;;;;;21.71;39.79;102938.28;4957257;28;20411;-85
2022/07/08 00:11:23;;;;;;;34.90;33.00;;;;;;;21.69;39.99;102940.47;4959603;28;20125;-82
2022/07/08 00:13:48;;;;;;;35.03;33.30;;;;;;;21.68;39.57;102933.31;4960091;28;20067;-85
2022/07/08 00:16:14;;;;;;;35.35;33.55;;;;;;;21.65;39.69;102934.69;4959495;28;20043;-85
2022/07/08 00:18:39;;;;;;;34.22;32.33;;;;;;;21.65;39.96;102939.38;4959734;28;20070;-83
2022/07/08 00:21:05;;;;;;;35.90;33.53;;;;;;;21.63;40.02;102938.78;4959471;28;20038;-86
2022/07/08 00:23:30;;;;;;;33.63;31.90;;;;;;;21.63;40.16;102941.53;4959806;28;20039;-84
2022/07/08 00:25:56;;;;;;;35.13;33.25;;;;;;;21.61;39.72;102947.28;4958999;28;20039;-83
2022/07/08 00:28:21;;;;;;;35.10;32.85;;;;;;;21.58;40.02;102943.16;4959150;28;20399;-83
2022/07/08 00:30:46;;;;;;;34.08;32.20;;;;;;;21.58;40.15;102940.41;4959742;28;20126;-87
2022/07/08 00:33:12;;;;;;;34.22;32.22;;;;;;;21.56;39.80;102945.34;4961696;28;20492;-84
2022/07/08 00:35:37;;;;;;;33.55;31.85;;;;;;;21.56;39.61;102952.75;4963875;28;20102;-85
2022/07/08 00:38:03;;;;;;;34.72;32.72;;;;;;;21.54;39.76;102950.25;4962836;28;20038;-84
2022/07/08 00:40:28;;;;;;;32.90;31.25;;;;;;;21.53;39.65;102954.13;4960601;28;20051;-83
2022/07/08 00:42:54;;;;;;;33.83;31.73;;;;;;;21.51;39.78;102953.53;4961097;28;20038;-75
2022/07/08 00:45:19;;;;;;;32.75;31.05;;;;;;;21.51;39.92;102955.47;4963952;28;20095;-86
2022/07/08 00:47:45;;;;;;;33.85;31.95;;;;;;;21.49;39.79;102957.66;4959835;28;20068;-85
2022/07/08 00:50:11;;;;;;;34.38;32.47;;;;;;;21.48;40.24;102953.25;4959448;28;20035;-85
2022/07/08 00:52:41;;;;;;;34.13;32.22;;;;;;;21.46;40.06;102950.75;4959269;28;20042;-85
2022/07/08 00:55:07;;;;;;;33.22;31.63;;;;;;;21.45;39.66;102949.09;4959216;28;20546;-85
2022/07/08 00:57:35;;;;;;;34.65;32.63;;;;;;;21.45;40.13;102956.53;4959208;28;20498;-83
2022/07/08 01:00:00;;;;;;;34.28;32.50;;;;;;;21.44;40.22;102952.09;4958778;28;20066;-83
2022/07/08 01:02:26;;;;;;;34.60;32.70;;;;;;;21.43;40.15;102955.97;4958997;28;20147;-84
2022/07/08 01:04:51;;;;;;;34.03;31.80;;;;;;;21.41;39.82;102950.72;4958830;28;20035;-85
2022/07/08 01:07:18;;;;;;;34.00;32.20;;;;;;;21.39;40.26;102953.75;4957881;29;20114;-88
2022/07/08 01:09:43;;;;;;;32.75;31.15;;;;;;;21.37;40.25;102961.38;4957678;29;20034;-84
2022/07/08 01:12:09;;;;;;;36.22;33.97;;;;;;;21.37;39.99;102952.31;4959226;28;20031;-86
2022/07/08 01:14:34;;;;;;;32.55;30.70;;;;;;;21.36;40.35;102950.63;4958891;28;20502;-86
2022/07/08 01:17:00;;;;;;;33.58;31.58;;;;;;;21.35;39.77;102965.50;4958651;28;20027;-85
2022/07/08 01:19:25;;;;;;;32.60;30.95;;;;;;;21.33;40.16;102960.25;4958519;28;20039;-84
2022/07/08 01:21:51;;;;;;;32.72;31.02;;;;;;;21.32;40.20;102952.28;4974061;28;20524;-86
2022/07/08 01:24:17;;;;;;;32.97;31.17;;;;;;;21.32;40.13;102960.53;4958551;28;20118;-85
2022/07/08 01:26:44;;;;;;;33.72;31.88;;;;;;;21.31;40.11;102950.59;4957704;29;20035;-85
2022/07/08 01:29:09;;;;;;;34.50;32.50;;;;;;;21.30;39.92;102954.44;4958244;28;20046;-86
2022/07/08 01:31:35;;;;;;;33.13;31.33;;;;;;;21.28;40.09;102956.63;4958721;28;20035;-87
2022/07/08 01:34:01;;;;;;;33.97;31.98;;;;;;;21.28;40.45;102951.13;4959135;28;20098;-82
2022/07/08 01:36:26;;;;;;;32.75;30.95;;;;;;;21.26;40.39;102951.38;4958738;28;20043;-88
2022/07/08 01:38:52;;;;;;;32.95;31.30;;;;;;;21.25;39.93;102949.72;4959168;28;20453;-85
2022/07/08 01:41:17;;;;;;;33.35;31.45;;;;;;;21.24;40.03;102953.56;4958638;28;20105;-85
2022/07/08 01:43:43;;;;;;;31.73;29.95;;;;;;;21.23;40.39;102948.34;4958866;28;20452;-81
2022/07/08 01:46:08;;;;;;;33.70;31.80;;;;;;;21.23;40.49;102951.09;4958338;28;20075;-87
2022/07/08 01:48:33;;;;;;;32.60;30.38;;;;;;;21.21;40.12;102942.25;4956955;29;20468;-87
2022/07/08 01:50:59;;;;;;;31.67;30.05;;;;;;;21.21;40.34;102950.50;4958670;28;20146;-86
2022/07/08 01:53:24;;;;;;;32.28;30.58;;;;;;;21.19;40.37;102942.50;4958596;28;20055;-86
2022/07/08 01:55:50;;;;;;;31.88;30.17;;;;;;;21.18;39.95;102946.34;4958577;28;20514;-85
2022/07/08 01:58:15;;;;;;;33.30;31.35;;;;;;;21.16;40.12;102945.78;4958231;28;20119;-84
2022/07/08 02:00:40;;;;;;;32.53;30.75;;;;;;;21.13;40.15;102946.31;4941284;28;20400;-84
2022/07/08 02:03:06;;;;;;;32.67;30.77;;;;;;;21.13;40.05;102949.06;4958735;28;20116;-85
2022/07/08 02:05:33;;;;;;;33.30;31.48;;;;;;;21.11;40.15;102946.56;4958444;28;20384;-84
2022/07/08 02:07:59;;;;;;;31.85;30.00;;;;;;;21.10;40.11;102939.41;4958497;28;20120;-86
2022/07/08 02:10:25;;;;;;;31.65;30.05;;;;;;;21.09;40.46;102945.16;4957839;28;20551;-85
2022/07/08 02:12:50;;;;;;;32.10;30.35;;;;;;;21.08;40.59;102949.84;4956610;29;20114;-86
2022/07/08 02:15:15;;;;;;;32.30;30.27;;;;;;;21.07;40.67;102947.38;4958100;28;20035;-86
2022/07/08 02:17:42;;;;;;;32.05;30.38;;;;;;;21.05;40.39;102950.38;4957840;28;20035;-87
2022/07/08 02:20:11;;;;;;;32.58;30.70;;;;;;;21.04;40.70;102951.47;4957060;28;20503;-83
2022/07/08 02:22:37;;;;;;;32.30;30.40;;;;;;;21.03;40.14;102949.78;4957571;28;20031;-86
2022/07/08 02:25:03;;;;;;;32.58;29.95;;;;;;;21.01;40.36;102949.22;4957455;28;20090;-84
2022/07/08 02:27:28;;;;;;;31.58;29.98;;;;;;;21.00;40.62;102939.31;4956934;28;20039;-84
2022/07/08 02:29:54;;;;;;;31.52;29.83;;;;;;;20.99;40.79;102948.66;4957446;28;20476;-88
2022/07/08 02:32:19;;;;;;;32.60;30.90;;;;;;;20.98;40.55;102951.66;4956295;28;20035;-86
2022/07/08 02:34:45;;;;;;;33.92;31.92;;;;;;;20.96;40.37;102950.03;4956132;29;20027;-85
2022/07/08 02:37:10;;;;;;;31.75;30.13;;;;;;;20.94;40.68;102946.69;4957525;28;20460;-87
2022/07/08 02:39:36;;;;;;;32.20;30.27;;;;;;;20.94;40.76;102946.69;4957181;28;20058;-81
2022/07/08 02:42:02;;;;;;;31.20;29.63;;;;;;;20.93;40.50;102960.69;4957169;28;20031;-83
2022/07/08 02:44:28;;;;;;;33.63;31.70;;;;;;;20.91;40.39;102951.84;4957993;28;20078;-84
2022/07/08 02:46:53;;;;;;;30.98;29.15;;;;;;;20.90;40.91;102955.72;4973150;28;20035;-83
2022/07/08 02:49:18;;;;;;;32.75;30.35;;;;;;;20.88;40.73;102952.38;4956723;28;20066;-84
2022/07/08 02:51:44;;;;;;;30.90;29.30;;;;;;;20.87;40.88;102948.81;4956664;28;20113;-87
2022/07/08 02:54:09;;;;;;;31.17;29.35;;;;;;;20.86;40.43;102946.31;4956354;28;20064;-84
2022/07/08 02:56:35;;;;;;;30.60;29.10;;;;;;;20.84;40.84;102948.47;4956565;28;20067;-84
2022/07/08 02:59:01;;;;;;;31.13;28.83;;;;;;;20.82;40.49;102953.44;4956518;28;20054;-82
2022/07/08 03:01:27;;;;;;;31.50;29.90;;;;;;;20.80;40.92;102948.19;4956406;28;20031;-83
2022/07/08 03:03:52;;;;;;;31.77;30.08;;;;;;;20.80;40.64;102950.09;4956477;28;20054;-83
2022/07/08 03:06:18;;;;;;;32.88;30.98;;;;;;;20.78;40.89;102952.28;4956263;28;20396;-84
2022/07/08 03:08:44;;;;;;;31.83;30.02;;;;;;;20.76;40.87;102958.00;4956499;28;20042;-82
2022/07/08 03:11:09;;;;;;;32.17;30.25;;;;;;;20.75;40.55;102967.34;4955016;28;20487;-86
2022/07/08 03:13:37;;;;;;;31.63;29.83;;;;;;;20.73;40.92;102956.63;4956220;28;20456;-83
2022/07/08 03:16:06;;;;;;;30.80;29.02;;;;;;;20.71;40.64;102952.47;4956151;28;20086;-84
2022/07/08 03:18:32;;;;;;;32.10;30.48;;;;;;;20.70;40.93;102961.81;4970658;28;20035;-82
2022/07/08 03:20:57;;;;;;;31.52;29.77;;;;;;;20.67;40.89;102957.66;4956857;28;20043;-83
2022/07/08 03:23:23;;;;;;;32.70;30.55;;;;;;;20.67;40.62;102962.31;4956053;28;20087;-84
2022/07/08 03:25:48;;;;;;;30.85;29.15;;;;;;;20.65;40.77;102965.31;4956051;28;20031;-84
2022/07/08 03:28:14;;;;;;;32.33;30.42;;;;;;;20.64;40.83;102960.09;4956270;28;20039;-83
2022/07/08 03:30:40;;;;;;;31.17;29.63;;;;;;;20.62;40.79;102965.84;4955083;29;20032;-83
2022/07/08 03:33:05;;;;;;;32.15;29.75;;;;;;;20.60;41.17;102958.94;4955722;28;20031;-83
2022/07/08 03:35:31;;;;;;;32.15;30.25;;;;;;;20.59;40.95;102949.03;4955971;28;20066;-86
2022/07/08 03:37:56;;;;;;;30.92;29.40;;;;;;;20.57;41.00;102954.78;4955989;28;20468;-82
2022/07/08 03:43:06;;;;;;;31.58;29.70;;;;;;;20.53;40.80;102957.16;4954741;28;20423;-83
2022/07/08 03:45:31;;;;;;;33.28;31.23;;;;;;;20.51;41.27;102961.25;4955371;28;20031;-83
2022/07/08 03:47:57;;;;;;;31.10;29.25;;;;;;;20.49;40.75;102956.03;4955699;28;20035;-84
2022/07/08 03:50:23;;;;;;;31.45;29.63;;;;;;;20.48;40.83;102959.84;4955739;28;20502;-85
2022/07/08 03:52:48;;;;;;;29.35;27.85;;;;;;;20.46;40.94;102959.31;4955928;28;20066;-84
2022/07/08 03:55:14;;;;;;;31.48;29.73;;;;;;;20.45;40.74;102962.28;4956255;28;20041;-84
2022/07/08 03:57:39;;;;;;;31.15;29.25;;;;;;;20.43;41.29;102959.78;4956017;28;20105;-83
2022/07/08 04:00:07;;;;;;;31.23;29.55;;;;;;;20.42;40.98;102960.06;4955912;28;20035;-86
2022/07/08 04:02:33;;;;;;;33.30;31.37;;;;;;;20.40;40.76;102964.97;4955601;28;20027;-85
2022/07/08 04:04:58;;;;;;;30.92;29.33;;;;;;;20.39;41.05;102961.41;4955508;28;20122;-86
2022/07/08 04:07:24;;;;;;;31.80;30.15;;;;;;;20.38;40.83;102956.16;4955402;28;20077;-88
2022/07/08 04:09:49;;;;;;;30.35;28.55;;;;;;;20.36;41.33;102955.59;4955596;28;20039;-83
2022/07/08 04:12:14;;;;;;;31.08;29.15;;;;;;;20.34;41.05;102955.84;4955446;28;20421;-83
2022/07/08 04:14:40;;;;;;;30.58;28.83;;;;;;;20.31;41.14;102951.72;4955542;28;20075;-84
2022/07/08 04:17:05;;;;;;;30.17;28.38;;;;;;;20.31;41.19;102961.88;4955590;28;20035;-84
2022/07/08 04:19:31;;;;;;;32.40;30.30;;;;;;;20.28;40.85;102959.59;4955174;28;20166;-83
2022/07/08 04:21:56;;;;;;;32.08;30.48;;;;;;;20.26;41.23;102965.38;4955212;28;20389;-85
2022/07/08 04:24:21;;;;;;;31.75;29.75;;;;;;;20.25;41.18;102971.91;4955364;28;20040;-84
2022/07/08 04:26:47;;;;;;;30.73;29.23;;;;;;;20.24;41.07;102972.19;4955468;28;20043;-86
2022/07/08 04:29:12;;;;;;;30.67;29.00;;;;;;;20.23;41.11;102976.00;4954069;29;20098;-84
2022/07/08 04:31:38;;;;;;;33.13;31.20;;;;;;;20.20;41.21;102977.34;4955318;28;20399;-87
2022/07/08 04:34:03;;;;;;;31.23;29.63;;;;;;;20.19;41.06;102964.72;4955539;28;20090;-85
2022/07/08 04:36:28;;;;;;;31.10;29.15;;;;;;;20.18;41.04;102971.25;4955731;28;20082;-84
2022/07/08 04:38:54;;;;;;;31.90;29.75;;;;;;;20.17;40.96;102972.38;4956292;28;20057;-84
2022/07/08 04:41:19;;;;;;;30.58;28.75;;;;;;;20.15;41.30;102970.97;4956063;28;20085;-86
2022/07/08 04:43:44;;;;;;;30.65;28.67;;;;;;;20.14;41.21;102977.53;4955199;28;20036;-87
2022/07/08 04:46:11;;;;;;;31.83;29.95;;;;;;;20.12;41.19;102972.28;4955854;28;20039;-85
2022/07/08 04:48:36;;;;;;;32.78;30.83;;;;;;;20.12;41.18;102979.69;4955678;28;20035;-84
2022/07/08 04:51:02;;;;;;;30.95;29.10;;;;;;;20.10;41.28;102982.69;4954993;28;20031;-86
2022/07/08 04:53:28;;;;;;;31.27;29.45;;;;;;;20.08;41.50;102985.69;4955371;28;20056;-84
2022/07/08 04:55:53;;;;;;;31.02;29.33;;;;;;;20.07;41.15;102995.00;4958270;28;20495;-85
2022/07/08 04:58:19;;;;;;;32.45;29.88;;;;;;;20.07;41.01;102996.91;4958612;28;20126;-86
2022/07/08 05:00:44;;;;;;;32.28;30.38;;;;;;;20.04;40.78;102990.03;4957417;29;20062;-86
2022/07/08 05:03:09;;;;;;;29.65;28.08;;;;;;;20.04;41.05;102991.94;4958383;28;20038;-86
2022/07/08 05:05:35;;;;;;;31.20;29.50;;;;;;;20.03;41.02;102999.34;4958437;28;20041;-83
2022/07/08 05:08:00;;;;;;;30.80;28.98;;;;;;;20.01;41.18;103001.50;4956996;29;20055;-88
2022/07/08 05:10:27;;;;;;;31.08;29.45;;;;;;;20.01;41.49;103006.16;4957697;29;20119;-86
2022/07/08 05:12:54;;;;;;;29.90;28.40;;;;;;;20.01;41.28;103008.91;4958011;28;20448;-86
2022/07/08 05:15:20;;;;;;;30.45;28.73;;;;;;;20.01;41.16;102995.19;4958439;28;20039;-85
2022/07/08 05:17:47;;;;;;;33.53;31.02;;;;;;;19.99;41.13;103000.91;4958291;28;20122;-85
2022/07/08 05:20:13;;;;;;;30.05;28.33;;;;;;;20.00;41.52;103002.56;4958305;28;20464;-86
2022/07/08 05:22:38;;;;;;;32.33;29.40;;;;;;;20.00;41.36;103007.22;4958635;28;20035;-84
2022/07/08 05:25:05;;;;;;;29.52;27.73;;;;;;;19.99;41.66;103005.56;4973296;28;20027;-85
2022/07/08 05:27:31;;;;;;;29.88;28.33;;;;;;;19.99;41.57;103002.84;4957602;28;20139;-82
2022/07/08 05:29:56;;;;;;;31.50;29.27;;;;;;;19.98;41.73;103017.63;4958343;28;20039;-85
2022/07/08 05:32:22;;;;;;;32.58;30.70;;;;;;;19.98;41.58;103025.84;4957692;28;20031;-85
2022/07/08 05:34:47;;;;;;;30.40;28.52;;;;;;;19.99;41.83;103019.28;4958193;28;20034;-82
2022/07/08 05:37:13;;;;;;;30.73;28.90;;;;;;;19.99;41.71;103019.28;4958318;28;20365;-85
2022/07/08 05:39:40;;;;;;;31.95;29.83;;;;;;;19.98;41.93;103026.69;4957914;28;20067;-83
2022/07/08 05:42:10;;;;;;;30.90;29.10;;;;;;;19.99;41.96;103022.88;4958465;28;20031;-87
2022/07/08 05:44:36;;;;;;;30.60;28.95;;;;;;;19.99;41.57;103041.25;4956675;28;20031;-85
2022/07/08 05:47:03;;;;;;;31.00;29.17;;;;;;;19.99;41.76;103035.75;4957931;28;20038;-86
2022/07/08 05:49:28;;;;;;;31.42;29.40;;;;;;;19.99;42.01;103041.25;4958296;28;20034;-86
2022/07/08 05:51:54;;;;;;;30.00;28.27;;;;;;;20.00;42.29;103032.75;4958495;28;20113;-88
2022/07/08 05:54:19;;;;;;;30.30;28.60;;;;;;;20.00;42.15;103032.75;4972975;28;20050;-84
2022/07/08 05:56:45;;;;;;;32.08;30.17;;;;;;;20.00;42.18;103038.22;4958184;28;20054;-85
2022/07/08 05:59:10;;;;;;;31.52;29.48;;;;;;;20.02;42.46;103038.00;4962439;28;20039;-85
2022/07/08 06:01:36;;;;;;;31.13;29.02;;;;;;;20.03;42.38;103048.72;4966187;29;20062;-84
2022/07/08 06:04:01;;;;;;;29.58;27.83;;;;;;;20.04;42.10;103044.88;4964502;28;20491;-84
2022/07/08 06:06:27;;;;;;;30.65;29.05;;;;;;;20.06;42.13;103050.13;4961373;28;20059;-85
2022/07/08 06:08:52;;;;;;;31.80;29.80;;;;;;;20.07;42.13;103044.38;4958166;29;20031;-88
2022/07/08 06:11:17;;;;;;;31.52;29.52;;;;;;;20.09;42.31;103046.88;4958042;28;20059;-87
2022/07/08 06:13:43;;;;;;;32.63;30.50;;;;;;;20.11;41.97;103052.97;4957234;28;20443;-85
2022/07/08 06:16:08;;;;;;;30.25;28.58;;;;;;;20.13;42.25;103055.44;4957356;28;20043;-88
2022/07/08 06:18:37;;;;;;;30.17;28.42;;;;;;;20.15;42.46;103056.84;4957450;28;20027;-85
2022/07/08 06:21:02;;;;;;;;;;;;;;;20.15;42.22;103056.00;4958021;28;20122;-85
2022/07/08 06:23:27;;;;;;;29.17;27.73;;;;;;;20.15;41.96;103053.28;4957280;29;19949;-85
2022/07/08 06:25:53;;;;;;;30.98;29.10;;;;;;;20.17;42.17;103046.44;4957414;28;20544;-84
2022/07/08 06:28:18;;;;;;;30.85;28.83;;;;;;;20.20;42.32;103047.84;4977996;28;20046;-85
2022/07/08 06:30:43;;;;;;;32.42;29.80;;;;;;;20.24;42.47;103054.53;4966657;28;20464;-85
2022/07/08 06:33:09;;;;;;;31.13;29.20;;;;;;;20.26;42.57;103047.69;4957141;28;20035;-85
2022/07/08 06:35:35;;;;;;;31.20;29.30;;;;;;;20.30;42.83;103045.25;4957165;28;20380;-85
2022/07/08 06:38:01;;;;;;;31.58;29.70;;;;;;;20.32;42.36;103049.41;4956865;28;20027;-85
2022/07/08 06:40:26;;;;;;;30.88;29.17;;;;;;;20.36;42.62;103051.66;4956762;28;20034;-86
2022/07/08 06:42:52;;;;;;;32.67;30.27;;;;;;;20.37;42.56;103051.41;4956690;28;20464;-86
2022/07/08 06:45:18;;;;;;;31.08;29.13;;;;;;;20.39;43.05;103051.16;4956791;28;20085;-83
2022/07/08 06:47:43;;;;;;;31.95;29.90;;;;;;;20.41;42.93;103046.22;4971563;28;20073;-87
2022/07/08 06:50:09;;;;;;;32.47;30.88;;;;;;;20.42;42.88;103056.16;4956892;28;20044;-85
2022/07/08 06:52:35;;;;;;;30.58;28.95;;;;;;;20.43;43.07;103047.63;4956790;28;20435;-82
2022/07/08 06:55:01;;;;;;;31.42;29.25;;;;;;;20.47;43.33;103058.97;4955519;29;20039;-83
2022/07/08 06:57:26;;;;;;;30.88;29.27;;;;;;;20.49;43.04;103059.53;4971250;28;20130;-85
2022/07/08 06:59:52;;;;;;;29.98;28.40;;;;;;;20.52;43.15;103056.28;4956504;28;20456;-82
2022/07/08 07:02:18;;;;;;;31.45;29.55;;;;;;;20.55;43.00;103054.97;4956564;28;20067;-83
2022/07/08 07:04:43;;;;;;;31.17;29.52;;;;;;;20.57;43.18;103056.38;4955240;29;20071;-85
2022/07/08 07:07:09;;;;;;;32.47;30.42;;;;;;;20.61;43.40;103057.53;4956924;28;20055;-87
2022/07/08 07:09:35;;;;;;;31.70;29.75;;;;;;;20.64;43.36;103061.72;4956867;29;20114;-81
2022/07/08 07:12:01;;;;;;;33.28;31.40;;;;;;;20.68;43.55;103063.66;4956738;28;20039;-87
2022/07/08 07:14:27;;;;;;;31.60;29.40;;;;;;;20.72;43.43;103058.50;4956325;28;20110;-87
2022/07/08 07:16:52;;;;;;;34.45;32.42;;;;;;;20.72;43.71;103070.31;4955852;28;20387;-86
2022/07/08 07:19:18;;;;;;;32.05;30.02;;;;;;;20.75;43.64;103066.22;4956151;28;20043;-87
2022/07/08 07:21:43;;;;;;;32.58;30.88;;;;;;;20.80;43.71;103065.47;4955915;28;20054;-87
2022/07/08 07:24:08;;;;;;;32.88;31.08;;;;;;;20.82;43.86;103064.13;4956323;28;20126;-86
2022/07/08 07:26:34;;;;;;;32.60;30.80;;;;;;;20.88;43.71;103059.53;4955473;29;20039;-86
2022/07/08 07:28:59;;;;;;;32.67;30.83;;;;;;;20.93;43.93;103065.91;4954794;29;20047;-85
2022/07/08 07:31:25;;;;;;;31.95;30.30;;;;;;;20.97;43.78;103071.72;4955046;29;20043;-86
2022/07/08 07:33:50;;;;;;;34.50;32.58;;;;;;;21.02;43.91;103069.03;4956574;28;20059;-85
2022/07/08 07:36:15;;;;;;;33.05;31.00;;;;;;;21.07;43.83;103073.78;4956194;28;20035;-87
2022/07/08 07:38:41;;;;;;;33.40;31.33;;;;;;;21.11;43.96;103066.66;4955957;28;20043;-86
2022/07/08 07:41:06;;;;;;;36.50;34.22;;;;;;;21.17;43.74;103069.22;4956182;28;20042;-85
2022/07/08 07:43:31;;;;;;;33.30;31.40;;;;;;;21.23;43.91;103066.53;4955863;28;20035;-86
2022/07/08 07:45:57;;;;;;;35.10;32.47;;;;;;;21.28;43.76;103064.66;4955633;29;20046;-86
2022/07/08 07:48:22;;;;;;;33.92;31.98;;;;;;;21.33;44.08;103059.22;4954768;29;20071;-88
2022/07/08 07:50:48;;;;;;;33.85;31.83;;;;;;;21.38;43.94;103058.44;4956300;28;20400;-77
2022/07/08 07:53:13;;;;;;;34.08;31.98;;;;;;;21.43;43.92;103066.75;4971637;28;20119;-87
2022/07/08 07:55:38;;;;;;;34.22;32.08;;;;;;;21.50;43.97;103061.06;4954805;29;20043;-85
2022/07/08 07:58:04;;;;;;;35.28;33.17;;;;;;;21.56;43.93;103062.75;4956014;28;20027;-86
2022/07/08 08:00:29;;;;;;;33.40;31.70;;;;;;;21.62;43.96;103058.97;4970685;28;20043;-85
2022/07/08 08:02:55;;;;;;;35.85;33.90;;;;;;;21.68;43.67;103048.84;4958641;29;20039;-86
2022/07/08 08:05:20;;;;;;;34.63;32.53;;;;;;;21.73;43.72;103055.22;4960432;28;20031;-83
2022/07/08 08:07:45;;;;;;;34.60;32.20;;;;;;;21.79;44.00;103051.41;4955516;28;20404;-80
2022/07/08 08:10:11;;;;;;;36.22;33.42;;;;;;;21.85;43.73;103057.81;4954048;29;20031;-83
2022/07/08 08:12:37;;;;;;;34.75;32.15;;;;;;;21.92;43.41;103046.56;4955058;28;20118;-80
2022/07/08 08:15:03;;;;;;;35.85;33.70;;;;;;;21.99;43.39;103053.47;4955489;28;20059;-80
2022/07/08 08:17:37;;;;;;;36.60;34.40;;;;;;;22.06;43.41;103057.94;4953938;28;20042;-81
2022/07/08 08:20:05;;;;;;;36.40;34.55;;;;;;;22.12;43.17;103054.13;4955442;28;20114;-82
2022/07/08 08:22:30;;;;;;;34.73;32.97;;;;;;;22.19;43.09;103065.75;4955259;28;20039;-83
2022/07/08 08:24:56;;;;;;;37.13;35.17;;;;;;;22.26;43.35;103055.38;4954047;29;20667;-82
2022/07/08 08:27:22;;;;;;;37.30;34.85;;;;;;;22.32;43.02;103058.97;4970087;28;20035;-81
2022/07/08 08:29:47;;;;;;;37.05;34.88;;;;;;;22.38;43.32;103056.00;4970970;28;20424;-79
2022/07/08 08:32:12;;;;;;;38.75;36.15;;;;;;;22.45;42.68;103058.50;4958952;28;20528;-82
2022/07/08 08:34:38;;;;;;;39.33;36.55;;;;;;;22.50;42.84;103065.94;4957773;29;20035;-84
2022/07/08 08:37:03;;;;;;;38.33;36.38;;;;;;;22.57;42.72;103063.78;4957845;29;20045;-83
2022/07/08 08:39:29;;;;;;;36.95;35.15;;;;;;;22.63;42.92;103063.56;4958750;28;20403;-85
2022/07/08 08:41:54;;;;;;;36.88;34.78;;;;;;;22.72;43.11;103066.63;4958999;28;20118;-78
2022/07/08 08:44:19;;;;;;;37.15;34.75;;;;;;;22.80;42.54;103063.34;4958798;28;20399;-84
2022/07/08 08:46:46;;;;;;;38.53;36.47;;;;;;;22.88;43.25;103065.59;4973581;28;20035;-83
2022/07/08 08:49:13;;;;;;;37.72;35.45;;;;;;;22.96;42.49;103060.66;4958588;28;20125;-85
2022/07/08 08:51:40;;;;;;;35.22;33.28;;;;;;;23.03;42.93;103061.25;4958654;28;20118;-86
2022/07/08 08:54:06;;;;;;;37.03;35.00;;;;;;;23.10;42.81;103053.56;4958534;28;20046;-85
2022/07/08 08:56:32;;;;;;;37.30;35.03;;;;;;;23.19;42.82;103051.94;4959097;28;20035;-85
2022/07/08 08:58:58;;;;;;;37.75;35.63;;;;;;;23.28;42.98;103047.56;4958168;28;20123;-83
2022/07/08 09:01:24;;;;;;;40.90;38.40;;;;;;;23.37;42.88;103047.84;4957208;29;20110;-83
2022/07/08 09:03:50;;;;;;;38.88;36.70;;;;;;;23.46;42.88;103037.06;4958650;28;20047;-89
2022/07/08 09:06:15;;;;;;;41.97;39.78;;;;;;;23.55;42.27;103043.72;4963033;28;20035;-83
2022/07/08 09:08:40;;;;;;;39.47;37.38;;;;;;;23.64;42.08;103044.00;4958793;28;20059;-86
2022/07/08 09:11:06;;;;;;;40.17;37.88;;;;;;;23.71;42.74;103034.34;4958593;28;20051;-85
2022/07/08 09:13:32;;;;;;;39.20;37.10;;;;;;;23.81;42.32;103036.28;4958299;28;20039;-86
2022/07/08 09:15:59;;;;;;;38.63;36.45;;;;;;;23.91;42.25;103038.22;4958480;28;20027;-79
2022/07/08 09:18:34;;;;;;;40.53;38.20;;;;;;;24.00;42.11;103022.75;4961931;28;20043;-86
2022/07/08 09:21:01;;;;;;;39.33;37.33;;;;;;;24.09;42.39;103023.84;4963315;28;20035;-86
2022/07/08 09:23:37;;;;;;;43.53;40.90;;;;;;;24.21;42.40;103028.22;4963833;28;20031;-86
2022/07/08 09:26:05;;;;;;;40.72;38.38;;;;;;;24.29;41.88;103027.66;4961589;28;20057;-86
2022/07/08 09:28:33;;;;;;;40.60;38.58;;;;;;;24.38;42.37;103035.06;4961085;28;20047;-87
2022/07/08 09:31:02;;;;;;;39.10;37.15;;;;;;;24.48;42.29;103033.44;4965046;28;20038;-88
2022/07/08 09:33:28;;;;;;;42.13;39.60;;;;;;;24.57;42.15;103031.75;4971534;28;20060;-89
2022/07/08 09:36:00;;;;;;;41.38;38.78;;;;;;;24.68;42.21;103038.88;4972115;28;20024;-88
2022/07/08 09:38:27;;;;;;;43.63;41.42;;;;;;;24.77;41.93;103031.66;4973908;28;20050;-82
2022/07/08 09:41:02;;;;;;;44.42;41.72;;;;;;;24.88;42.13;103026.06;4967227;28;20074;-89
2022/07/08 09:43:28;;;;;;;45.70;43.13;;;;;;;24.97;42.19;103027.97;4958043;28;20485;-86
2022/07/08 09:45:54;;;;;;;45.70;43.13;;;;;;;25.08;41.67;103030.66;4957872;28;20027;-85
2022/07/08 09:48:19;;;;;;;44.88;42.58;;;;;;;25.18;42.04;103033.38;4972800;28;20109;-87
2022/07/08 09:50:48;;;;;;;48.85;46.20;;;;;;;25.28;41.67;103038.84;4958537;28;20373;-87
2022/07/08 09:53:18;;;;;;;48.58;45.97;;;;;;;25.36;41.79;103035.47;4958079;28;20086;-84
2022/07/08 09:55:47;;;;;;;46.97;43.97;;;;;;;25.46;41.44;103043.69;4958249;28;20464;-88
2022/07/08 09:58:14;;;;;;;45.28;42.65;;;;;;;25.56;41.25;103034.50;4960925;28;20447;-87
2022/07/08 10:00:40;;;;;;;50.78;48.17;;;;;;;25.67;41.19;103040.75;4963528;28;20058;-84
2022/07/08 10:03:06;;;;;;;44.22;42.10;;;;;;;25.76;41.09;103039.03;4981165;28;20023;-85
2022/07/08 10:05:31;;;;;;;46.00;43.80;;;;;;;25.85;41.05;103040.06;4962794;28;20039;-87
2022/07/08 10:07:57;;;;;;;47.90;45.03;;;;;;;25.95;41.23;103039.13;4959509;28;20488;-89
2022/07/08 10:10:24;;;;;;;48.55;46.05;;;;;;;26.04;40.86;103042.94;4957094;29;20050;-86
2022/07/08 10:12:53;;;;;;;47.72;45.10;;;;;;;26.15;41.17;103051.13;4958316;28;20039;-89
2022/07/08 10:15:21;;;;;;;47.97;45.38;;;;;;;26.25;40.71;103026.91;4956122;28;20062;-88
2022/07/08 10:17:49;;;;;;;47.38;44.25;;;;;;;26.34;40.50;103041.78;4956675;29;20034;-87
2022/07/08 10:20:16;;;;;;;;;;;;;;;26.43;40.70;103041.94;4958423;28;20031;-83
2022/07/08 10:22:49;;;;;;;46.65;44.03;;;;;;;26.53;40.85;103043.81;4957600;28;19917;-86
2022/07/08 10:25:20;;;;;;;50.63;48.13;;;;;;;26.62;40.56;103038.44;4957496;28;20460;-87
2022/07/08 10:27:46;;;;;;;49.33;46.67;;;;;;;26.71;39.74;103037.50;4957753;28;20039;-87
2022/07/08 10:30:21;;;;;;;49.60;47.00;;;;;;;26.84;39.55;103032.31;4957188;28;20468;-88
2022/07/08 10:32:48;;;;;;;49.50;46.78;;;;;;;26.92;39.75;103035.25;4957872;28;20086;-85
2022/07/08 10:35:22;;;;;;;49.53;47.03;;;;;;;27.03;39.66;103033.16;4957029;28;20417;-89
2022/07/08 10:37:56;;;;;;;53.50;50.88;;;;;;;27.13;40.07;103032.19;4957900;28;20028;-86
2022/07/08 10:40:49;;;;;;;55.13;52.45;;;;;;;27.23;40.18;103037.63;4957183;28;20056;-88
2022/07/08 10:43:28;;;;;;;53.50;50.78;;;;;;;27.34;39.16;103027.16;4957347;28;20421;-79
2022/07/08 10:46:05;;;;;;;50.88;48.17;;;;;;;27.44;39.28;103029.78;4956992;28;20039;-86
2022/07/08 10:48:52;;;;;;;53.83;51.25;;;;;;;27.55;39.12;103025.72;4956982;28;20057;-85
2022/07/08 10:51:20;;;;;;;53.65;50.65;;;;;;;27.65;38.09;103029.47;4957422;28;20384;-87
2022/07/08 10:53:56;;;;;;;53.95;51.35;;;;;;;27.75;37.74;103023.72;4956364;28;20498;-85
2022/07/08 10:56:44;;;;;;;56.72;53.90;;;;;;;27.85;38.27;103017.19;4956994;28;20028;-85
2022/07/08 10:59:25;;;;;;;55.13;52.37;;;;;;;27.91;38.87;103025.13;4957890;28;20023;-85
2022/07/08 11:01:54;;;;;;;53.92;51.20;;;;;;;28.00;38.31;103036.34;4959008;28;20038;-86
2022/07/08 11:04:28;;;;;;;;;;;;;;;28.08;38.92;103029.28;4957570;28;20039;-88
2022/07/08 11:06:56;;;;;;;54.45;51.72;;;;;;;28.15;38.08;103033.28;4956657;29;20027;-86
2022/07/08 11:09:23;;;;;;;55.05;52.13;;;;;;;28.24;37.61;103019.50;4956845;28;20118;-85